sensor_id;sensor_type;location;lat;lon;timestamp;temperature;humidity
4312;DHT22;2169;49.086;9.284;2023-04-03T00:00:04;5.10;57.10
4312;DHT22;2169;49.086;9.284;2023-04-03T00:02:32;5.10;57.20
4312;DHT22;2169;49.086;9.284;2023-04-03T00:04:59;5.10;57.20
4312;DHT22;2169;49.086;9.284;2023-04-03T00:07:26;5.10;57.20
4312;DHT22;2169;49.086;9.284;2023-04-03T00:09:54;5.10;57.30
4312;DHT22;2169;49.086;9.284;2023-04-03T00:12:21;5.00;57.20
4312;DHT22;2169;49.086;9.284;2023-04-03T00:14:48;5.00;57.30
4312;DHT22;2169;49.086;9.284;2023-04-03T00:17:15;5.00;57.30
4312;DHT22;2169;49.086;9.284;2023-04-03T00:19:41;5.00;57.30
4312;DHT22;2169;49.086;9.284;2023-04-03T00:22:08;5.00;57.40
4312;DHT22;2169;49.086;9.284;2023-04-03T00:24:35;5.00;57.40
4312;DHT22;2169;49.086;9.284;2023-04-03T00:27:03;4.90;57.40
4312;DHT22;2169;49.086;9.284;2023-04-03T00:29:30;5.00;57.60
4312;DHT22;2169;49.086;9.284;2023-04-03T00:31:56;5.00;57.60
4312;DHT22;2169;49.086;9.284;2023-04-03T00:34:23;5.00;57.60
4312;DHT22;2169;49.086;9.284;2023-04-03T00:36:50;5.00;57.70
4312;DHT22;2169;49.086;9.284;2023-04-03T00:39:17;4.90;57.60
4312;DHT22;2169;49.086;9.284;2023-04-03T00:41:44;4.90;57.60
4312;DHT22;2169;49.086;9.284;2023-04-03T00:47:10;5.00;57.80
4312;DHT22;2169;49.086;9.284;2023-04-03T00:49:38;4.90;57.70
4312;DHT22;2169;49.086;9.284;2023-04-03T00:52:06;4.90;57.70
4312;DHT22;2169;49.086;9.284;2023-04-03T00:54:35;4.90;57.60
4312;DHT22;2169;49.086;9.284;2023-04-03T00:57:03;4.80;57.60
4312;DHT22;2169;49.086;9.284;2023-04-03T00:59:34;4.80;57.70
4312;DHT22;2169;49.086;9.284;2023-04-03T01:02:02;4.80;57.70
4312;DHT22;2169;49.086;9.284;2023-04-03T01:04:32;4.80;57.70
4312;DHT22;2169;49.086;9.284;2023-04-03T01:07:03;4.80;57.70
4312;DHT22;2169;49.086;9.284;2023-04-03T01:09:31;4.80;57.70
4312;DHT22;2169;49.086;9.284;2023-04-03T01:12:13;4.80;57.70
4312;DHT22;2169;49.086;9.284;2023-04-03T01:14:41;4.80;57.70
4312;DHT22;2169;49.086;9.284;2023-04-03T01:17:26;4.80;57.80
4312;DHT22;2169;49.086;9.284;2023-04-03T01:20:18;4.80;57.80
4312;DHT22;2169;49.086;9.284;2023-04-03T01:22:53;4.80;57.80
4312;DHT22;2169;49.086;9.284;2023-04-03T01:25:23;4.80;57.80
4312;DHT22;2169;49.086;9.284;2023-04-03T01:27:50;4.80;57.80
4312;DHT22;2169;49.086;9.284;2023-04-03T01:30:19;4.90;57.80
4312;DHT22;2169;49.086;9.284;2023-04-03T01:32:47;4.80;57.80
4312;DHT22;2169;49.086;9.284;2023-04-03T01:35:15;4.80;57.80
4312;DHT22;2169;49.086;9.284;2023-04-03T01:37:41;4.80;57.80
4312;DHT22;2169;49.086;9.284;2023-04-03T01:40:09;4.90;57.80
4312;DHT22;2169;49.086;9.284;2023-04-03T01:42:36;4.80;57.70
4312;DHT22;2169;49.086;9.284;2023-04-03T01:45:03;4.80;57.70
4312;DHT22;2169;49.086;9.284;2023-04-03T01:47:30;4.90;57.90
4312;DHT22;2169;49.086;9.284;2023-04-03T01:49:58;4.90;57.90
4312;DHT22;2169;49.086;9.284;2023-04-03T01:52:25;4.90;57.90
4312;DHT22;2169;49.086;9.284;2023-04-03T01:54:51;4.90;57.90
4312;DHT22;2169;49.086;9.284;2023-04-03T01:57:18;4.90;57.80
4312;DHT22;2169;49.086;9.284;2023-04-03T01:59:45;4.90;57.80
4312;DHT22;2169;49.086;9.284;2023-04-03T02:02:12;4.90;57.80
4312;DHT22;2169;49.086;9.284;2023-04-03T02:04:40;4.90;58.20
4312;DHT22;2169;49.086;9.284;2023-04-03T02:07:08;4.90;57.80
4312;DHT22;2169;49.086;9.284;2023-04-03T02:09:35;4.90;57.70
4312;DHT22;2169;49.086;9.284;2023-04-03T02:12:02;4.90;57.70
4312;DHT22;2169;49.086;9.284;2023-04-03T02:14:28;4.90;57.60
4312;DHT22;2169;49.086;9.284;2023-04-03T02:16:55;4.90;58.20
4312;DHT22;2169;49.086;9.284;2023-04-03T02:19:22;4.90;57.60
4312;DHT22;2169;49.086;9.284;2023-04-03T02:21:49;4.90;57.60
4312;DHT22;2169;49.086;9.284;2023-04-03T02:24:17;4.90;57.50
4312;DHT22;2169;49.086;9.284;2023-04-03T02:26:43;4.90;57.60
4312;DHT22;2169;49.086;9.284;2023-04-03T02:29:10;4.90;57.60
4312;DHT22;2169;49.086;9.284;2023-04-03T02:31:37;4.90;57.60
4312;DHT22;2169;49.086;9.284;2023-04-03T02:34:03;4.90;57.60
4312;DHT22;2169;49.086;9.284;2023-04-03T02:36:31;4.90;57.60
4312;DHT22;2169;49.086;9.284;2023-04-03T02:38:57;4.90;57.60
4312;DHT22;2169;49.086;9.284;2023-04-03T02:41:25;4.90;57.60
4312;DHT22;2169;49.086;9.284;2023-04-03T02:43:59;4.90;57.60
4312;DHT22;2169;49.086;9.284;2023-04-03T02:46:25;4.90;57.60
4312;DHT22;2169;49.086;9.284;2023-04-03T02:48:52;4.90;57.60
4312;DHT22;2169;49.086;9.284;2023-04-03T02:51:19;4.90;57.60
4312;DHT22;2169;49.086;9.284;2023-04-03T02:53:46;4.90;57.60
4312;DHT22;2169;49.086;9.284;2023-04-03T02:56:12;4.90;57.60
4312;DHT22;2169;49.086;9.284;2023-04-03T02:58:41;4.90;57.60
4312;DHT22;2169;49.086;9.284;2023-04-03T03:01:07;4.90;57.60
4312;DHT22;2169;49.086;9.284;2023-04-03T03:03:34;4.90;57.60
4312;DHT22;2169;49.086;9.284;2023-04-03T03:06:02;4.90;57.60
4312;DHT22;2169;49.086;9.284;2023-04-03T03:08:29;4.90;57.60
4312;DHT22;2169;49.086;9.284;2023-04-03T03:10:56;4.90;57.60
4312;DHT22;2169;49.086;9.284;2023-04-03T03:13:23;4.90;58.30
4312;DHT22;2169;49.086;9.284;2023-04-03T03:15:51;4.90;57.70
4312;DHT22;2169;49.086;9.284;2023-04-03T03:18:18;4.90;57.60
4312;DHT22;2169;49.086;9.284;2023-04-03T03:20:45;4.90;57.60
4312;DHT22;2169;49.086;9.284;2023-04-03T03:23:12;4.90;57.60
4312;DHT22;2169;49.086;9.284;2023-04-03T03:25:38;4.90;57.60
4312;DHT22;2169;49.086;9.284;2023-04-03T03:28:06;4.90;57.60
4312;DHT22;2169;49.086;9.284;2023-04-03T03:30:33;4.90;57.60
4312;DHT22;2169;49.086;9.284;2023-04-03T03:33:01;4.90;57.50
4312;DHT22;2169;49.086;9.284;2023-04-03T03:35:28;4.90;57.50
4312;DHT22;2169;49.086;9.284;2023-04-03T03:37:54;4.90;57.60
4312;DHT22;2169;49.086;9.284;2023-04-03T03:40:21;4.90;57.60
4312;DHT22;2169;49.086;9.284;2023-04-03T03:42:48;4.90;57.60
4312;DHT22;2169;49.086;9.284;2023-04-03T03:45:15;4.90;57.70
4312;DHT22;2169;49.086;9.284;2023-04-03T03:47:42;4.90;57.70
4312;DHT22;2169;49.086;9.284;2023-04-03T03:50:10;4.90;57.70
4312;DHT22;2169;49.086;9.284;2023-04-03T03:52:37;4.90;57.70
4312;DHT22;2169;49.086;9.284;2023-04-03T03:55:04;4.80;57.70
4312;DHT22;2169;49.086;9.284;2023-04-03T03:57:31;4.80;57.70
4312;DHT22;2169;49.086;9.284;2023-04-03T03:59:58;4.80;57.70
4312;DHT22;2169;49.086;9.284;2023-04-03T04:02:25;4.70;57.60
4312;DHT22;2169;49.086;9.284;2023-04-03T04:04:52;4.70;57.60
4312;DHT22;2169;49.086;9.284;2023-04-03T04:07:20;4.70;57.70
4312;DHT22;2169;49.086;9.284;2023-04-03T04:09:47;4.70;57.70
4312;DHT22;2169;49.086;9.284;2023-04-03T04:12:14;4.70;57.70
4312;DHT22;2169;49.086;9.284;2023-04-03T04:14:41;4.70;57.60
4312;DHT22;2169;49.086;9.284;2023-04-03T04:17:08;4.70;57.60
4312;DHT22;2169;49.086;9.284;2023-04-03T04:19:35;4.70;57.60
4312;DHT22;2169;49.086;9.284;2023-04-03T04:22:02;4.60;57.50
4312;DHT22;2169;49.086;9.284;2023-04-03T04:24:30;4.60;57.40
4312;DHT22;2169;49.086;9.284;2023-04-03T04:26:56;4.60;57.40
4312;DHT22;2169;49.086;9.284;2023-04-03T04:29:23;4.50;57.40
4312;DHT22;2169;49.086;9.284;2023-04-03T04:31:50;4.50;57.40
4312;DHT22;2169;49.086;9.284;2023-04-03T04:34:17;4.50;57.40
4312;DHT22;2169;49.086;9.284;2023-04-03T04:36:43;4.40;57.30
4312;DHT22;2169;49.086;9.284;2023-04-03T04:39:10;4.40;57.30
4312;DHT22;2169;49.086;9.284;2023-04-03T04:41:42;4.40;57.40
4312;DHT22;2169;49.086;9.284;2023-04-03T04:44:09;4.40;57.40
4312;DHT22;2169;49.086;9.284;2023-04-03T04:46:36;4.30;57.30
4312;DHT22;2169;49.086;9.284;2023-04-03T04:49:03;4.40;57.40
4312;DHT22;2169;49.086;9.284;2023-04-03T04:51:31;4.30;57.30
4312;DHT22;2169;49.086;9.284;2023-04-03T04:53:58;4.30;57.30
4312;DHT22;2169;49.086;9.284;2023-04-03T04:56:24;4.30;57.40
4312;DHT22;2169;49.086;9.284;2023-04-03T04:58:53;4.30;57.40
4312;DHT22;2169;49.086;9.284;2023-04-03T05:01:20;4.30;57.40
4312;DHT22;2169;49.086;9.284;2023-04-03T05:03:47;4.30;57.40
4312;DHT22;2169;49.086;9.284;2023-04-03T05:06:14;4.30;57.30
4312;DHT22;2169;49.086;9.284;2023-04-03T05:08:41;4.20;57.20
4312;DHT22;2169;49.086;9.284;2023-04-03T05:11:08;4.20;57.20
4312;DHT22;2169;49.086;9.284;2023-04-03T05:13:35;4.20;57.20
4312;DHT22;2169;49.086;9.284;2023-04-03T05:16:04;4.20;57.30
4312;DHT22;2169;49.086;9.284;2023-04-03T05:18:31;4.10;57.30
4312;DHT22;2169;49.086;9.284;2023-04-03T05:20:58;4.20;58.00
4312;DHT22;2169;49.086;9.284;2023-04-03T05:23:24;4.10;57.30
4312;DHT22;2169;49.086;9.284;2023-04-03T05:25:51;4.20;57.40
4312;DHT22;2169;49.086;9.284;2023-04-03T05:28:19;4.20;57.30
4312;DHT22;2169;49.086;9.284;2023-04-03T05:30:53;4.10;57.20
4312;DHT22;2169;49.086;9.284;2023-04-03T05:33:23;4.10;57.30
4312;DHT22;2169;49.086;9.284;2023-04-03T05:35:51;4.10;57.30
4312;DHT22;2169;49.086;9.284;2023-04-03T05:38:19;4.10;57.40
4312;DHT22;2169;49.086;9.284;2023-04-03T05:40:46;4.10;57.40
4312;DHT22;2169;49.086;9.284;2023-04-03T05:43:13;4.10;57.30
4312;DHT22;2169;49.086;9.284;2023-04-03T05:45:40;4.10;57.30
4312;DHT22;2169;49.086;9.284;2023-04-03T05:48:07;4.10;57.30
4312;DHT22;2169;49.086;9.284;2023-04-03T05:50:35;4.10;57.40
4312;DHT22;2169;49.086;9.284;2023-04-03T05:53:07;4.10;57.30
4312;DHT22;2169;49.086;9.284;2023-04-03T05:55:40;4.00;57.30
4312;DHT22;2169;49.086;9.284;2023-04-03T05:58:07;4.10;57.40
4312;DHT22;2169;49.086;9.284;2023-04-03T06:00:34;4.10;57.50
4312;DHT22;2169;49.086;9.284;2023-04-03T06:03:01;4.00;57.40
4312;DHT22;2169;49.086;9.284;2023-04-03T06:05:28;4.00;57.50
4312;DHT22;2169;49.086;9.284;2023-04-03T06:07:56;4.00;57.50
4312;DHT22;2169;49.086;9.284;2023-04-03T06:10:24;4.00;57.50
4312;DHT22;2169;49.086;9.284;2023-04-03T06:12:51;4.00;57.60
4312;DHT22;2169;49.086;9.284;2023-04-03T06:15:18;4.10;57.70
4312;DHT22;2169;49.086;9.284;2023-04-03T06:17:45;4.10;57.80
4312;DHT22;2169;49.086;9.284;2023-04-03T06:20:12;4.10;57.80
4312;DHT22;2169;49.086;9.284;2023-04-03T06:22:39;4.10;57.80
4312;DHT22;2169;49.086;9.284;2023-04-03T06:25:09;4.10;58.00
4312;DHT22;2169;49.086;9.284;2023-04-03T06:27:38;4.10;58.00
4312;DHT22;2169;49.086;9.284;2023-04-03T06:30:06;4.10;58.00
4312;DHT22;2169;49.086;9.284;2023-04-03T06:32:33;4.20;58.10
4312;DHT22;2169;49.086;9.284;2023-04-03T06:35:00;4.20;58.10
4312;DHT22;2169;49.086;9.284;2023-04-03T06:37:28;4.20;58.20
4312;DHT22;2169;49.086;9.284;2023-04-03T06:39:56;4.20;58.20
4312;DHT22;2169;49.086;9.284;2023-04-03T06:42:24;4.20;58.20
4312;DHT22;2169;49.086;9.284;2023-04-03T06:44:51;4.30;58.90
4312;DHT22;2169;49.086;9.284;2023-04-03T06:47:18;4.30;58.40
4312;DHT22;2169;49.086;9.284;2023-04-03T06:49:45;4.40;58.50
4312;DHT22;2169;49.086;9.284;2023-04-03T06:52:12;4.40;58.50
4312;DHT22;2169;49.086;9.284;2023-04-03T06:54:39;4.40;58.50
4312;DHT22;2169;49.086;9.284;2023-04-03T06:57:06;4.40;58.50
4312;DHT22;2169;49.086;9.284;2023-04-03T06:59:35;4.40;58.50
4312;DHT22;2169;49.086;9.284;2023-04-03T07:02:02;4.40;58.60
4312;DHT22;2169;49.086;9.284;2023-04-03T07:04:29;4.50;58.70
4312;DHT22;2169;49.086;9.284;2023-04-03T07:06:56;4.50;58.70
4312;DHT22;2169;49.086;9.284;2023-04-03T07:09:23;4.50;58.80
4312;DHT22;2169;49.086;9.284;2023-04-03T07:11:50;4.60;58.90
4312;DHT22;2169;49.086;9.284;2023-04-03T07:14:17;4.60;58.90
4312;DHT22;2169;49.086;9.284;2023-04-03T07:16:46;4.60;59.00
4312;DHT22;2169;49.086;9.284;2023-04-03T07:19:12;4.60;58.90
4312;DHT22;2169;49.086;9.284;2023-04-03T07:21:39;4.60;59.00
4312;DHT22;2169;49.086;9.284;2023-04-03T07:24:07;4.60;59.10
4312;DHT22;2169;49.086;9.284;2023-04-03T07:26:34;4.60;59.10
4312;DHT22;2169;49.086;9.284;2023-04-03T07:29:01;4.60;59.20
4312;DHT22;2169;49.086;9.284;2023-04-03T07:31:28;4.70;59.40
4312;DHT22;2169;49.086;9.284;2023-04-03T07:33:56;4.70;59.40
4312;DHT22;2169;49.086;9.284;2023-04-03T07:36:23;4.70;59.40
4312;DHT22;2169;49.086;9.284;2023-04-03T07:38:50;4.80;59.50
4312;DHT22;2169;49.086;9.284;2023-04-03T07:41:18;4.80;59.40
4312;DHT22;2169;49.086;9.284;2023-04-03T07:43:46;4.80;59.50
4312;DHT22;2169;49.086;9.284;2023-04-03T07:46:15;4.90;59.50
4312;DHT22;2169;49.086;9.284;2023-04-03T07:48:43;4.90;59.50
4312;DHT22;2169;49.086;9.284;2023-04-03T07:51:12;4.90;59.50
4312;DHT22;2169;49.086;9.284;2023-04-03T07:53:39;5.00;59.60
4312;DHT22;2169;49.086;9.284;2023-04-03T07:56:07;5.00;59.60
4312;DHT22;2169;49.086;9.284;2023-04-03T07:58:34;5.10;59.70
4312;DHT22;2169;49.086;9.284;2023-04-03T08:01:02;5.10;59.70
4312;DHT22;2169;49.086;9.284;2023-04-03T08:03:29;5.20;59.70
4312;DHT22;2169;49.086;9.284;2023-04-03T08:06:02;5.30;59.80
4312;DHT22;2169;49.086;9.284;2023-04-03T08:08:31;5.30;59.70
4312;DHT22;2169;49.086;9.284;2023-04-03T08:10:59;5.40;59.60
4312;DHT22;2169;49.086;9.284;2023-04-03T08:13:28;5.40;59.40
4312;DHT22;2169;49.086;9.284;2023-04-03T08:15:55;5.40;59.20
4312;DHT22;2169;49.086;9.284;2023-04-03T08:18:23;5.50;59.10
4312;DHT22;2169;49.086;9.284;2023-04-03T08:20:51;5.50;59.00
4312;DHT22;2169;49.086;9.284;2023-04-03T08:23:19;5.60;59.00
4312;DHT22;2169;49.086;9.284;2023-04-03T08:25:47;5.60;59.40
4312;DHT22;2169;49.086;9.284;2023-04-03T08:28:14;5.70;58.70
4312;DHT22;2169;49.086;9.284;2023-04-03T08:30:42;5.70;58.60
4312;DHT22;2169;49.086;9.284;2023-04-03T08:33:09;5.80;58.50
4312;DHT22;2169;49.086;9.284;2023-04-03T08:35:38;5.80;58.40
4312;DHT22;2169;49.086;9.284;2023-04-03T08:38:06;5.90;58.30
4312;DHT22;2169;49.086;9.284;2023-04-03T08:40:33;5.90;58.20
4312;DHT22;2169;49.086;9.284;2023-04-03T08:43:19;6.00;58.20
4312;DHT22;2169;49.086;9.284;2023-04-03T08:45:52;6.10;58.60
4312;DHT22;2169;49.086;9.284;2023-04-03T08:48:22;6.10;57.90
4312;DHT22;2169;49.086;9.284;2023-04-03T08:50:54;6.10;57.90
4312;DHT22;2169;49.086;9.284;2023-04-03T08:53:25;6.20;58.00
4312;DHT22;2169;49.086;9.284;2023-04-03T08:55:55;6.30;58.00
4312;DHT22;2169;49.086;9.284;2023-04-03T08:58:26;6.40;58.10
4312;DHT22;2169;49.086;9.284;2023-04-03T09:00:58;6.50;58.80
4312;DHT22;2169;49.086;9.284;2023-04-03T09:03:29;6.60;58.10
4312;DHT22;2169;49.086;9.284;2023-04-03T09:05:59;6.70;57.70
4312;DHT22;2169;49.086;9.284;2023-04-03T09:08:30;6.70;57.50
4312;DHT22;2169;49.086;9.284;2023-04-03T09:11:06;6.80;57.40
4312;DHT22;2169;49.086;9.284;2023-04-03T09:13:43;6.90;57.30
4312;DHT22;2169;49.086;9.284;2023-04-03T09:16:20;6.90;57.10
4312;DHT22;2169;49.086;9.284;2023-04-03T09:18:51;7.00;57.60
4312;DHT22;2169;49.086;9.284;2023-04-03T09:21:24;7.00;56.80
4312;DHT22;2169;49.086;9.284;2023-04-03T09:23:55;7.00;56.60
4312;DHT22;2169;49.086;9.284;2023-04-03T09:26:28;7.10;56.70
4312;DHT22;2169;49.086;9.284;2023-04-03T09:29:01;7.10;56.60
4312;DHT22;2169;49.086;9.284;2023-04-03T09:31:35;7.10;56.20
4312;DHT22;2169;49.086;9.284;2023-04-03T09:34:05;7.10;56.10
4312;DHT22;2169;49.086;9.284;2023-04-03T09:36:38;7.20;55.90
4312;DHT22;2169;49.086;9.284;2023-04-03T09:39:06;7.10;55.60
4312;DHT22;2169;49.086;9.284;2023-04-03T09:41:35;7.20;55.70
4312;DHT22;2169;49.086;9.284;2023-04-03T09:44:21;7.20;55.70
4312;DHT22;2169;49.086;9.284;2023-04-03T09:46:49;7.40;55.80
4312;DHT22;2169;49.086;9.284;2023-04-03T09:49:17;7.40;55.70
4312;DHT22;2169;49.086;9.284;2023-04-03T09:51:45;7.40;55.50
4312;DHT22;2169;49.086;9.284;2023-04-03T09:54:34;7.50;55.40
4312;DHT22;2169;49.086;9.284;2023-04-03T09:57:10;7.50;55.30
4312;DHT22;2169;49.086;9.284;2023-04-03T09:59:44;7.40;55.00
4312;DHT22;2169;49.086;9.284;2023-04-03T10:02:33;7.40;54.90
4312;DHT22;2169;49.086;9.284;2023-04-03T10:05:01;7.40;55.00
4312;DHT22;2169;49.086;9.284;2023-04-03T10:07:31;7.40;55.10
4312;DHT22;2169;49.086;9.284;2023-04-03T10:10:01;7.40;54.80
4312;DHT22;2169;49.086;9.284;2023-04-03T10:12:29;7.40;54.70
4312;DHT22;2169;49.086;9.284;2023-04-03T10:14:59;7.50;54.80
4312;DHT22;2169;49.086;9.284;2023-04-03T10:17:49;7.50;54.80
4312;DHT22;2169;49.086;9.284;2023-04-03T10:20:27;7.50;54.50
4312;DHT22;2169;49.086;9.284;2023-04-03T10:23:06;7.50;54.40
4312;DHT22;2169;49.086;9.284;2023-04-03T10:25:43;7.50;54.40
4312;DHT22;2169;49.086;9.284;2023-04-03T10:28:19;7.60;54.60
4312;DHT22;2169;49.086;9.284;2023-04-03T10:30:53;7.60;54.40
4312;DHT22;2169;49.086;9.284;2023-04-03T10:33:44;7.60;54.20
4312;DHT22;2169;49.086;9.284;2023-04-03T10:36:22;7.60;53.90
4312;DHT22;2169;49.086;9.284;2023-04-03T10:38:57;7.60;53.70
4312;DHT22;2169;49.086;9.284;2023-04-03T10:41:36;7.60;53.70
4312;DHT22;2169;49.086;9.284;2023-04-03T10:44:15;7.70;53.70
4312;DHT22;2169;49.086;9.284;2023-04-03T10:46:47;7.70;53.50
4312;DHT22;2169;49.086;9.284;2023-04-03T10:49:24;7.70;53.10
4312;DHT22;2169;49.086;9.284;2023-04-03T10:52:00;7.70;53.20
4312;DHT22;2169;49.086;9.284;2023-04-03T10:54:34;7.60;52.60
4312;DHT22;2169;49.086;9.284;2023-04-03T10:57:08;7.60;52.50
4312;DHT22;2169;49.086;9.284;2023-04-03T10:59:38;7.60;52.50
4312;DHT22;2169;49.086;9.284;2023-04-03T11:02:21;7.60;52.60
4312;DHT22;2169;49.086;9.284;2023-04-03T11:05:02;7.70;52.80
4312;DHT22;2169;49.086;9.284;2023-04-03T11:07:39;7.70;52.90
4312;DHT22;2169;49.086;9.284;2023-04-03T11:10:11;7.80;52.90
4312;DHT22;2169;49.086;9.284;2023-04-03T11:12:44;7.80;52.70
4312;DHT22;2169;49.086;9.284;2023-04-03T11:15:18;7.80;52.50
4312;DHT22;2169;49.086;9.284;2023-04-03T11:17:53;7.90;52.20
4312;DHT22;2169;49.086;9.284;2023-04-03T11:20:28;7.80;51.80
4312;DHT22;2169;49.086;9.284;2023-04-03T11:23:01;7.90;51.80
4312;DHT22;2169;49.086;9.284;2023-04-03T11:25:31;7.90;50.60
4312;DHT22;2169;49.086;9.284;2023-04-03T11:28:00;7.80;50.50
4312;DHT22;2169;49.086;9.284;2023-04-03T11:30:33;7.80;50.60
4312;DHT22;2169;49.086;9.284;2023-04-03T11:33:32;7.90;50.60
4312;DHT22;2169;49.086;9.284;2023-04-03T11:36:06;7.90;50.50
4312;DHT22;2169;49.086;9.284;2023-04-03T11:38:37;7.90;50.40
4312;DHT22;2169;49.086;9.284;2023-04-03T11:41:07;7.90;50.10
4312;DHT22;2169;49.086;9.284;2023-04-03T11:43:55;8.00;50.10
4312;DHT22;2169;49.086;9.284;2023-04-03T11:46:22;8.00;49.90
4312;DHT22;2169;49.086;9.284;2023-04-03T11:48:56;8.10;49.70
4312;DHT22;2169;49.086;9.284;2023-04-03T11:51:51;8.00;49.20
4312;DHT22;2169;49.086;9.284;2023-04-03T11:54:49;8.00;49.70
4312;DHT22;2169;49.086;9.284;2023-04-03T11:57:44;8.00;49.20
4312;DHT22;2169;49.086;9.284;2023-04-03T12:13:00;8.00;48.90
4312;DHT22;2169;49.086;9.284;2023-04-03T12:15:48;8.10;49.00
4312;DHT22;2169;49.086;9.284;2023-04-03T12:18:40;8.20;48.70
4312;DHT22;2169;49.086;9.284;2023-04-03T12:21:08;8.20;48.40
4312;DHT22;2169;49.086;9.284;2023-04-03T12:23:36;8.30;48.10
4312;DHT22;2169;49.086;9.284;2023-04-03T12:26:08;8.30;47.90
4312;DHT22;2169;49.086;9.284;2023-04-03T12:28:50;8.30;47.60
4312;DHT22;2169;49.086;9.284;2023-04-03T12:31:19;8.40;47.70
4312;DHT22;2169;49.086;9.284;2023-04-03T12:34:10;8.40;47.50
4312;DHT22;2169;49.086;9.284;2023-04-03T12:36:50;8.50;47.10
4312;DHT22;2169;49.086;9.284;2023-04-03T12:39:49;8.50;47.00
4312;DHT22;2169;49.086;9.284;2023-04-03T12:42:44;8.50;46.70
4312;DHT22;2169;49.086;9.284;2023-04-03T12:45:20;8.60;47.00
4312;DHT22;2169;49.086;9.284;2023-04-03T12:47:49;8.60;46.70
4312;DHT22;2169;49.086;9.284;2023-04-03T12:50:21;8.60;46.70
4312;DHT22;2169;49.086;9.284;2023-04-03T12:52:54;8.60;46.60
4312;DHT22;2169;49.086;9.284;2023-04-03T12:55:21;8.60;46.70
4312;DHT22;2169;49.086;9.284;2023-04-03T12:57:50;8.70;46.70
4312;DHT22;2169;49.086;9.284;2023-04-03T13:00:31;8.80;46.40
4312;DHT22;2169;49.086;9.284;2023-04-03T13:02:59;8.80;46.10
4312;DHT22;2169;49.086;9.284;2023-04-03T13:05:27;8.80;46.10
4312;DHT22;2169;49.086;9.284;2023-04-03T13:07:59;8.90;45.90
4312;DHT22;2169;49.086;9.284;2023-04-03T13:10:27;9.00;45.90
4312;DHT22;2169;49.086;9.284;2023-04-03T13:12:56;9.10;45.50
4312;DHT22;2169;49.086;9.284;2023-04-03T13:15:27;9.10;45.00
4312;DHT22;2169;49.086;9.284;2023-04-03T13:17:55;9.10;44.60
4312;DHT22;2169;49.086;9.284;2023-04-03T13:20:25;9.20;44.60
4312;DHT22;2169;49.086;9.284;2023-04-03T13:22:57;9.20;44.40
4312;DHT22;2169;49.086;9.284;2023-04-03T13:25:28;9.20;44.60
4312;DHT22;2169;49.086;9.284;2023-04-03T13:27:55;9.30;44.80
4312;DHT22;2169;49.086;9.284;2023-04-03T13:30:29;9.30;44.80
4312;DHT22;2169;49.086;9.284;2023-04-03T13:33:00;9.30;44.50
4312;DHT22;2169;49.086;9.284;2023-04-03T13:35:31;9.30;44.20
4312;DHT22;2169;49.086;9.284;2023-04-03T13:38:01;9.20;44.40
4312;DHT22;2169;49.086;9.284;2023-04-03T13:40:28;9.30;44.60
4312;DHT22;2169;49.086;9.284;2023-04-03T13:43:00;9.30;44.60
4312;DHT22;2169;49.086;9.284;2023-04-03T13:45:30;9.30;44.30
4312;DHT22;2169;49.086;9.284;2023-04-03T13:48:11;9.30;44.30
4312;DHT22;2169;49.086;9.284;2023-04-03T13:50:54;9.40;44.40
4312;DHT22;2169;49.086;9.284;2023-04-03T13:53:22;9.40;44.30
4312;DHT22;2169;49.086;9.284;2023-04-03T13:55:56;9.40;44.20
4312;DHT22;2169;49.086;9.284;2023-04-03T13:58:26;9.40;43.80
4312;DHT22;2169;49.086;9.284;2023-04-03T14:00:59;9.40;43.70
4312;DHT22;2169;49.086;9.284;2023-04-03T14:03:30;9.40;43.10
4312;DHT22;2169;49.086;9.284;2023-04-03T14:05:58;9.30;43.10
4312;DHT22;2169;49.086;9.284;2023-04-03T14:08:26;9.40;43.20
4312;DHT22;2169;49.086;9.284;2023-04-03T14:10:53;9.30;43.80
4312;DHT22;2169;49.086;9.284;2023-04-03T14:13:21;9.30;43.10
4312;DHT22;2169;49.086;9.284;2023-04-03T14:15:49;9.40;43.00
4312;DHT22;2169;49.086;9.284;2023-04-03T14:18:19;9.40;42.90
4312;DHT22;2169;49.086;9.284;2023-04-03T14:20:47;9.40;43.00
4312;DHT22;2169;49.086;9.284;2023-04-03T14:23:15;9.30;42.70
4312;DHT22;2169;49.086;9.284;2023-04-03T14:25:42;9.30;42.70
4312;DHT22;2169;49.086;9.284;2023-04-03T14:28:15;9.30;42.60
4312;DHT22;2169;49.086;9.284;2023-04-03T14:30:44;9.30;42.40
4312;DHT22;2169;49.086;9.284;2023-04-03T14:33:14;9.30;42.20
4312;DHT22;2169;49.086;9.284;2023-04-03T14:35:43;9.30;42.10
4312;DHT22;2169;49.086;9.284;2023-04-03T14:38:21;9.30;42.00
4312;DHT22;2169;49.086;9.284;2023-04-03T14:40:49;9.40;42.10
4312;DHT22;2169;49.086;9.284;2023-04-03T14:43:16;9.30;41.90
4312;DHT22;2169;49.086;9.284;2023-04-03T14:45:45;9.40;42.10
4312;DHT22;2169;49.086;9.284;2023-04-03T14:48:17;9.40;42.20
4312;DHT22;2169;49.086;9.284;2023-04-03T14:50:47;9.50;42.10
4312;DHT22;2169;49.086;9.284;2023-04-03T14:53:14;9.50;41.90
4312;DHT22;2169;49.086;9.284;2023-04-03T14:55:44;9.50;41.50
4312;DHT22;2169;49.086;9.284;2023-04-03T14:58:13;9.50;41.30
4312;DHT22;2169;49.086;9.284;2023-04-03T15:00:41;9.60;41.50
4312;DHT22;2169;49.086;9.284;2023-04-03T15:03:13;9.60;41.20
4312;DHT22;2169;49.086;9.284;2023-04-03T15:05:41;9.60;41.20
4312;DHT22;2169;49.086;9.284;2023-04-03T15:08:18;9.50;41.20
4312;DHT22;2169;49.086;9.284;2023-04-03T15:10:46;9.50;41.00
4312;DHT22;2169;49.086;9.284;2023-04-03T15:13:14;9.50;41.00
4312;DHT22;2169;49.086;9.284;2023-04-03T15:15:41;9.50;41.10
4312;DHT22;2169;49.086;9.284;2023-04-03T15:18:14;9.50;41.00
4312;DHT22;2169;49.086;9.284;2023-04-03T15:20:41;9.50;41.20
4312;DHT22;2169;49.086;9.284;2023-04-03T15:23:11;9.60;41.90
4312;DHT22;2169;49.086;9.284;2023-04-03T15:25:43;9.80;41.30
4312;DHT22;2169;49.086;9.284;2023-04-03T15:28:17;9.80;41.20
4312;DHT22;2169;49.086;9.284;2023-04-03T15:30:45;9.80;40.80
4312;DHT22;2169;49.086;9.284;2023-04-03T15:33:12;9.80;40.60
4312;DHT22;2169;49.086;9.284;2023-04-03T15:35:42;9.70;40.40
4312;DHT22;2169;49.086;9.284;2023-04-03T15:38:09;9.80;40.70
4312;DHT22;2169;49.086;9.284;2023-04-03T15:40:41;9.70;40.60
4312;DHT22;2169;49.086;9.284;2023-04-03T15:43:08;9.70;40.60
4312;DHT22;2169;49.086;9.284;2023-04-03T15:45:37;9.70;40.30
4312;DHT22;2169;49.086;9.284;2023-04-03T15:48:05;9.80;40.40
4312;DHT22;2169;49.086;9.284;2023-04-03T15:50:34;9.80;40.50
4312;DHT22;2169;49.086;9.284;2023-04-03T15:53:01;9.80;40.90
4312;DHT22;2169;49.086;9.284;2023-04-03T15:55:33;9.90;39.90
4312;DHT22;2169;49.086;9.284;2023-04-03T15:58:02;9.90;40.20
4312;DHT22;2169;49.086;9.284;2023-04-03T16:00:30;9.90;40.00
4312;DHT22;2169;49.086;9.284;2023-04-03T16:03:00;9.90;39.60
4312;DHT22;2169;49.086;9.284;2023-04-03T16:05:30;9.80;39.50
4312;DHT22;2169;49.086;9.284;2023-04-03T16:07:58;9.80;39.70
4312;DHT22;2169;49.086;9.284;2023-04-03T16:10:26;9.80;39.80
4312;DHT22;2169;49.086;9.284;2023-04-03T16:12:57;9.80;40.00
4312;DHT22;2169;49.086;9.284;2023-04-03T16:15:29;9.80;39.90
4312;DHT22;2169;49.086;9.284;2023-04-03T16:17:58;9.80;40.00
4312;DHT22;2169;49.086;9.284;2023-04-03T16:20:25;9.80;40.00
4312;DHT22;2169;49.086;9.284;2023-04-03T16:23:04;9.90;40.10
4312;DHT22;2169;49.086;9.284;2023-04-03T16:25:32;9.90;40.00
4312;DHT22;2169;49.086;9.284;2023-04-03T16:28:01;9.90;39.80
4312;DHT22;2169;49.086;9.284;2023-04-03T16:30:29;9.90;39.80
4312;DHT22;2169;49.086;9.284;2023-04-03T16:32:57;9.80;39.00
4312;DHT22;2169;49.086;9.284;2023-04-03T16:35:24;9.80;38.80
4312;DHT22;2169;49.086;9.284;2023-04-03T16:37:51;9.70;38.80
4312;DHT22;2169;49.086;9.284;2023-04-03T16:40:18;9.60;38.80
4312;DHT22;2169;49.086;9.284;2023-04-03T16:42:45;9.60;39.20
4312;DHT22;2169;49.086;9.284;2023-04-03T16:45:12;9.60;39.30
4312;DHT22;2169;49.086;9.284;2023-04-03T16:47:44;9.60;39.40
4312;DHT22;2169;49.086;9.284;2023-04-03T16:50:13;9.60;39.60